Time;durP1;ratioP1;P1;durP2;ratioP2;P2;SDS_P1;SDS_P2;PMS_P1;PMS_P2;Temp;Humidity;BMP_temperature;BMP_pressure;BME280_temperature;BME280_humidity;BME280_pressure;Samples;Min_cycle;Max_cycle;Signal;HPM_P1;HPM_P2
2021/07/05 00:01:44;;;;;;;0.70;0.70;;;16.70;99.90;;;;;;6106454;23;20979;-81
2021/07/05 00:04:12;;;;;;;1.67;1.20;;;16.70;99.90;;;;;;6106848;23;20406;-82
2021/07/05 00:06:39;;;;;;;1.23;1.10;;;16.70;99.90;;;;;;6105575;23;20414;-82
2021/07/05 00:09:07;;;;;;;1.30;1.20;;;16.70;99.90;;;;;;6104714;23;20437;-83
2021/07/05 00:11:34;;;;;;;1.20;1.10;;;16.70;99.90;;;;;;6127740;23;20421;-82
2021/07/05 00:14:01;;;;;;;1.40;1.10;;;16.70;99.90;;;;;;6134620;23;20856;-83
2021/07/05 00:16:28;;;;;;;2.60;1.50;;;16.70;99.90;;;;;;6135517;23;20416;-82
2021/07/05 00:18:54;;;;;;;2.40;1.43;;;16.70;99.90;;;;;;6136143;23;20950;-83
2021/07/05 00:21:22;;;;;;;1.50;1.30;;;16.70;99.90;;;;;;6135607;23;20445;-84
2021/07/05 00:23:49;;;;;;;1.47;1.37;;;16.70;99.90;;;;;;6136797;23;20412;-82
2021/07/05 00:26:16;;;;;;;1.50;1.40;;;16.70;99.90;;;;;;6136775;23;20409;-82
2021/07/05 00:28:42;;;;;;;1.70;1.20;;;16.70;99.90;;;;;;6134114;23;20526;-83
2021/07/05 00:31:09;;;;;;;1.03;1.03;;;16.70;99.90;;;;;;6134936;23;20744;-82
2021/07/05 00:33:36;;;;;;;0.90;0.90;;;16.60;99.90;;;;;;6134886;23;20412;-82
2021/07/05 00:36:03;;;;;;;1.20;1.10;;;16.60;99.90;;;;;;6134327;23;20749;-83
2021/07/05 00:38:32;;;;;;;0.87;0.87;;;16.70;99.90;;;;;;6135041;23;20498;-81
2021/07/05 00:40:59;;;;;;;0.83;0.83;;;16.70;99.90;;;;;;6134227;23;20445;-82
2021/07/05 00:43:26;;;;;;;1.73;1.13;;;16.80;99.90;;;;;;6134389;23;20416;-82
2021/07/05 00:45:53;;;;;;;1.77;1.67;;;16.70;99.90;;;;;;6134833;23;20408;-82
2021/07/05 00:48:19;;;;;;;1.07;0.93;;;16.80;99.90;;;;;;6134454;23;20531;-83
2021/07/05 00:50:46;;;;;;;1.30;1.17;;;16.80;99.90;;;;;;6135314;23;20404;-82
2021/07/05 00:53:13;;;;;;;0.97;0.97;;;16.80;99.90;;;;;;6133527;23;20420;-82
2021/07/05 00:55:41;;;;;;;1.13;1.10;;;16.70;99.90;;;;;;6134739;23;20413;-82
2021/07/05 00:58:08;;;;;;;2.10;1.43;;;16.70;99.90;;;;;;6133817;23;20412;-82
2021/07/05 01:00:36;;;;;;;0.97;0.93;;;16.70;99.90;;;;;;6135123;23;20420;-82
2021/07/05 01:03:03;;;;;;;2.53;1.40;;;16.70;99.90;;;;;;6134159;23;20420;-83
2021/07/05 01:05:29;;;;;;;1.03;1.03;;;16.60;99.90;;;;;;6133309;23;20444;-83
2021/07/05 01:07:57;;;;;;;1.50;1.40;;;16.70;99.90;;;;;;6134265;23;20412;-82
2021/07/05 01:10:24;;;;;;;1.30;1.20;;;16.70;99.90;;;;;;6134235;23;20824;-83
2021/07/05 01:12:54;;;;;;;1.37;1.00;;;16.60;99.90;;;;;;6133956;23;20488;-82
2021/07/05 01:15:23;;;;;;;1.53;1.20;;;16.70;99.90;;;;;;6134025;23;20409;-82
2021/07/05 01:17:51;;;;;;;2.33;1.13;;;16.70;99.90;;;;;;6133864;23;20411;-82
2021/07/05 01:20:23;;;;;;;1.30;1.20;;;16.70;99.90;;;;;;6134456;23;20763;-82
2021/07/05 01:22:52;;;;;;;1.90;1.47;;;16.80;99.90;;;;;;6134521;23;20454;-82
2021/07/05 01:25:21;;;;;;;1.90;1.60;;;16.90;99.90;;;;;;6134104;23;20439;-82
2021/07/05 01:27:49;;;;;;;1.23;1.23;;;16.90;99.90;;;;;;6134376;23;20494;-82
2021/07/05 01:30:18;;;;;;;1.00;1.00;;;16.90;99.90;;;;;;6133783;23;20438;-83
2021/07/05 01:32:47;;;;;;;2.00;1.00;;;16.90;99.90;;;;;;6133778;23;20417;-82
2021/07/05 01:35:14;;;;;;;0.90;0.90;;;16.90;99.90;;;;;;6133995;23;20417;-82
2021/07/05 01:37:42;;;;;;;1.47;1.37;;;16.90;99.90;;;;;;6132938;23;20500;-82
2021/07/05 01:40:14;;;;;;;1.87;1.13;;;16.90;99.90;;;;;;6133443;23;20493;-82
2021/07/05 01:42:41;;;;;;;1.93;1.10;;;16.90;99.90;;;;;;6133867;23;20489;-82
2021/07/05 01:45:09;;;;;;;1.80;1.07;;;16.90;99.90;;;;;;6132995;23;20436;-82
2021/07/05 01:47:36;;;;;;;1.73;1.40;;;16.80;99.90;;;;;;6132614;23;20423;-83
2021/07/05 01:50:07;;;;;;;1.73;1.63;;;16.80;99.90;;;;;;6131543;23;20439;-82
2021/07/05 01:52:33;;;;;;;1.43;0.97;;;16.90;99.90;;;;;;6134665;23;20496;-82
2021/07/05 01:55:00;;;;;;;2.00;1.30;;;17.00;99.90;;;;;;6134170;23;20413;-83
2021/07/05 01:57:33;;;;;;;2.37;1.20;;;17.00;99.90;;;;;;6135339;23;20415;-82
2021/07/05 02:00:00;;;;;;;2.00;1.90;;;17.00;99.90;;;;;;6133371;23;20447;-82
2021/07/05 02:02:28;;;;;;;3.03;1.90;;;17.10;99.90;;;;;;6134439;23;20448;-83
2021/07/05 02:04:55;;;;;;;1.50;1.27;;;17.10;99.90;;;;;;6134064;23;20408;-83
2021/07/05 02:07:22;;;;;;;1.77;1.60;;;17.10;99.90;;;;;;6134144;23;20411;-82
2021/07/05 02:09:50;;;;;;;1.37;1.03;;;17.10;99.90;;;;;;6133324;23;20523;-82
2021/07/05 02:12:16;;;;;;;1.03;0.93;;;17.10;99.90;;;;;;6133191;23;20402;-83
2021/07/05 02:14:45;;;;;;;1.33;1.23;;;17.10;99.90;;;;;;6134193;23;20422;-82
2021/07/05 02:17:12;;;;;;;1.47;1.20;;;17.10;99.90;;;;;;6133909;23;20416;-82
2021/07/05 02:19:39;;;;;;;1.30;1.20;;;17.00;99.90;;;;;;6133640;23;20440;-82
2021/07/05 02:22:07;;;;;;;1.60;1.50;;;17.00;99.90;;;;;;6134608;23;20449;-82
2021/07/05 02:24:35;;;;;;;1.53;1.13;;;17.00;99.90;;;;;;6136230;23;20425;-82
2021/07/05 02:27:02;;;;;;;1.43;1.33;;;17.00;99.90;;;;;;6134757;23;20401;-82
2021/07/05 02:29:28;;;;;;;2.03;1.67;;;17.00;99.90;;;;;;6134107;23;20759;-82
2021/07/05 02:31:56;;;;;;;1.60;1.50;;;17.00;99.90;;;;;;6135313;23;20412;-83
2021/07/05 02:34:23;;;;;;;0.90;0.90;;;16.90;99.90;;;;;;6134979;23;20806;-82
2021/07/05 02:36:51;;;;;;;1.57;1.47;;;16.90;99.90;;;;;;6135443;23;20416;-82
2021/07/05 02:39:18;;;;;;;1.23;1.13;;;16.80;99.90;;;;;;6135803;23;20486;-82
2021/07/05 02:41:45;;;;;;;1.00;0.90;;;16.90;99.90;;;;;;6134976;23;20448;-82
2021/07/05 02:44:12;;;;;;;1.20;1.17;;;16.90;99.90;;;;;;6136109;23;20906;-82
2021/07/05 02:46:39;;;;;;;3.13;1.47;;;16.90;99.90;;;;;;6135899;23;20412;-82
2021/07/05 02:49:08;;;;;;;3.63;1.70;;;16.90;99.90;;;;;;6135780;23;20433;-82
2021/07/05 02:51:35;;;;;;;1.60;1.50;;;16.90;99.90;;;;;;6135371;23;20410;-82
2021/07/05 02:54:01;;;;;;;1.40;1.30;;;16.90;99.90;;;;;;6134660;23;20408;-82
2021/07/05 02:56:28;;;;;;;2.60;1.40;;;17.00;99.90;;;;;;6134337;23;20409;-82
2021/07/05 02:58:55;;;;;;;2.80;1.50;;;16.90;99.90;;;;;;6133727;23;20438;-82
2021/07/05 03:01:22;;;;;;;1.30;1.20;;;16.90;99.90;;;;;;6134669;23;20409;-83
2021/07/05 03:03:49;;;;;;;1.83;1.73;;;16.90;99.90;;;;;;6134903;23;20403;-82
2021/07/05 03:06:17;;;;;;;1.70;1.60;;;17.00;99.90;;;;;;6134361;23;20418;-82
2021/07/05 03:08:44;;;;;;;1.60;1.50;;;17.10;99.90;;;;;;6134798;23;20941;-82
2021/07/05 03:11:12;;;;;;;1.60;1.50;;;17.10;99.90;;;;;;6135917;23;20424;-82
2021/07/05 03:13:39;;;;;;;1.40;1.30;;;17.10;99.90;;;;;;6134775;23;20503;-82
2021/07/05 03:16:06;;;;;;;1.63;1.53;;;17.00;99.90;;;;;;6135789;23;20419;-82
2021/07/05 03:18:32;;;;;;;2.20;1.87;;;17.10;99.90;;;;;;6135244;23;20439;-82
2021/07/05 03:20:59;;;;;;;4.90;1.90;;;17.10;99.90;;;;;;6135028;23;20413;-82
2021/07/05 03:23:28;;;;;;;2.53;1.53;;;17.10;99.90;;;;;;6135826;23;20445;-83
2021/07/05 03:25:56;;;;;;;1.27;1.27;;;17.10;99.90;;;;;;6135132;23;20495;-82
2021/07/05 03:28:23;;;;;;;5.70;2.00;;;17.20;99.90;;;;;;6135620;23;20412;-82
2021/07/05 03:30:52;;;;;;;2.10;1.20;;;17.10;99.90;;;;;;6135074;23;20930;-82
2021/07/05 03:33:19;;;;;;;4.83;3.23;;;17.10;99.90;;;;;;6134949;23;20901;-83
2021/07/05 03:35:47;;;;;;;1.53;1.43;;;17.10;99.90;;;;;;6135868;23;20501;-83
2021/07/05 03:38:16;;;;;;;1.40;1.40;;;17.00;99.90;;;;;;6135643;23;20428;-82
2021/07/05 03:40:45;;;;;;;1.57;1.47;;;17.00;99.90;;;;;;6135065;23;20422;-82
2021/07/05 03:43:12;;;;;;;1.83;1.70;;;17.10;99.90;;;;;;6135670;23;20441;-82
2021/07/05 03:45:40;;;;;;;1.77;1.53;;;17.10;99.90;;;;;;6135900;23;20416;-83
2021/07/05 03:48:08;;;;;;;1.87;1.70;;;17.10;99.90;;;;;;6135544;23;20423;-83
2021/07/05 03:50:35;;;;;;;3.03;2.10;;;17.10;99.90;;;;;;6134717;23;20417;-83
2021/07/05 03:53:03;;;;;;;1.77;1.67;;;17.00;99.90;;;;;;6135245;23;20436;-82
2021/07/05 03:55:31;;;;;;;2.27;1.23;;;17.00;99.90;;;;;;6135409;23;20408;-82
2021/07/05 03:58:00;;;;;;;2.93;1.73;;;17.00;99.90;;;;;;6134501;23;20423;-82
2021/07/05 04:00:31;;;;;;;3.13;1.40;;;17.00;99.90;;;;;;6135021;23;20932;-82
2021/07/05 04:02:58;;;;;;;2.83;1.80;;;17.00;99.90;;;;;;6134748;23;20431;-82
2021/07/05 04:05:26;;;;;;;2.40;1.87;;;17.10;99.90;;;;;;6134971;23;20408;-82
2021/07/05 04:07:53;;;;;;;1.60;1.50;;;17.10;99.90;;;;;;6135013;23;20789;-82
2021/07/05 04:10:20;;;;;;;1.90;1.60;;;17.00;99.90;;;;;;6134738;23;20524;-82
2021/07/05 04:12:47;;;;;;;2.40;2.30;;;17.00;99.90;;;;;;6134788;23;20416;-83
2021/07/05 04:15:16;;;;;;;2.47;2.27;;;17.00;99.90;;;;;;6135414;23;20427;-82
2021/07/05 04:17:43;;;;;;;5.17;1.27;;;17.00;99.90;;;;;;6134765;23;20408;-82
2021/07/05 04:20:12;;;;;;;1.63;1.53;;;17.00;99.90;;;;;;6135413;23;20432;-83
2021/07/05 04:22:39;;;;;;;2.33;1.90;;;17.00;99.90;;;;;;6134212;23;20449;-83
2021/07/05 04:25:08;;;;;;;1.77;1.60;;;17.00;99.90;;;;;;6135915;23;20426;-82
2021/07/05 04:27:35;;;;;;;2.33;1.53;;;17.00;99.90;;;;;;6135524;23;20410;-82
2021/07/05 04:30:02;;;;;;;1.90;1.70;;;17.10;99.90;;;;;;6135402;23;20444;-82
2021/07/05 04:32:30;;;;;;;1.50;1.40;;;17.10;99.90;;;;;;6135010;23;20408;-82
2021/07/05 04:34:57;;;;;;;3.57;1.60;;;17.10;99.90;;;;;;6135605;23;20751;-82
2021/07/05 04:37:23;;;;;;;2.30;2.07;;;17.10;99.90;;;;;;6134734;23;20424;-83
2021/07/05 04:39:50;;;;;;;1.97;1.87;;;17.10;99.90;;;;;;6134296;23;20444;-82
2021/07/05 04:42:17;;;;;;;3.07;2.00;;;17.00;99.90;;;;;;6133336;23;20445;-82
2021/07/05 04:44:46;;;;;;;1.73;1.50;;;17.00;99.90;;;;;;6133607;23;20790;-82
2021/07/05 04:47:12;;;;;;;1.40;1.30;;;17.00;99.90;;;;;;6134595;23;20748;-82
2021/07/05 04:49:40;;;;;;;2.30;2.10;;;17.10;99.90;;;;;;6133491;23;20467;-83
2021/07/05 04:52:07;;;;;;;2.57;2.37;;;17.10;99.90;;;;;;6133936;23;20416;-82
2021/07/05 04:54:34;;;;;;;2.67;2.47;;;17.10;99.90;;;;;;6134025;23;20415;-83
2021/07/05 04:57:00;;;;;;;1.90;1.80;;;17.10;99.90;;;;;;6133779;23;20504;-83
2021/07/05 04:59:27;;;;;;;2.17;1.97;;;17.20;99.90;;;;;;6133810;23;20437;-83
2021/07/05 05:01:54;;;;;;;3.80;1.93;;;17.20;99.90;;;;;;6133797;23;20420;-84
2021/07/05 05:04:21;;;;;;;1.57;1.47;;;17.30;99.90;;;;;;6133754;23;20424;-83
2021/07/05 05:06:49;;;;;;;1.93;1.83;;;17.30;99.90;;;;;;6134229;23;20440;-84
2021/07/05 05:09:17;;;;;;;1.90;1.80;;;17.40;99.90;;;;;;6130856;23;20457;-86
2021/07/05 05:11:44;;;;;;;1.67;1.57;;;17.40;99.90;;;;;;6136371;23;20928;-85
2021/07/05 05:14:11;;;;;;;1.90;1.80;;;17.50;99.90;;;;;;6136029;23;20459;-85
2021/07/05 05:16:38;;;;;;;2.57;2.07;;;17.60;99.90;;;;;;6135367;23;20716;-85
2021/07/05 05:19:04;;;;;;;2.33;2.00;;;17.60;99.90;;;;;;6135000;23;20435;-85
2021/07/05 05:21:32;;;;;;;2.17;1.97;;;17.60;99.90;;;;;;6132156;23;20417;-85
2021/07/05 05:24:01;;;;;;;2.13;1.93;;;17.70;99.90;;;;;;6132477;23;20438;-85
2021/07/05 05:26:27;;;;;;;1.90;1.80;;;17.70;99.90;;;;;;6133319;23;21071;-84
2021/07/05 05:28:55;;;;;;;2.67;2.00;;;17.80;99.90;;;;;;6134860;23;20766;-85
2021/07/05 05:31:21;;;;;;;3.63;1.70;;;17.90;99.90;;;;;;6134064;23;20419;-85
2021/07/05 05:33:48;;;;;;;4.30;1.50;;;17.90;99.90;;;;;;6135065;23;20410;-85
2021/07/05 05:36:16;;;;;;;1.80;1.70;;;18.00;99.90;;;;;;6134406;23;20419;-85
2021/07/05 05:38:47;;;;;;;2.10;2.00;;;18.10;99.90;;;;;;6132619;23;20426;-85
2021/07/05 05:41:16;;;;;;;2.27;2.13;;;18.00;99.90;;;;;;6135878;23;20407;-85
2021/07/05 05:43:44;;;;;;;2.37;2.17;;;18.10;99.90;;;;;;6134860;23;20455;-85
2021/07/05 05:46:15;;;;;;;1.87;1.77;;;18.10;99.90;;;;;;6133155;23;20421;-85
2021/07/05 05:48:42;;;;;;;1.80;1.70;;;18.10;99.90;;;;;;6134779;23;20474;-85
2021/07/05 05:51:09;;;;;;;2.10;2.00;;;18.10;99.90;;;;;;6133923;23;20452;-85
2021/07/05 05:53:36;;;;;;;2.10;1.70;;;18.00;99.90;;;;;;6133493;23;20724;-85
2021/07/05 05:56:03;;;;;;;1.50;1.40;;;18.00;99.90;;;;;;6131531;23;20422;-84
2021/07/05 05:58:36;;;;;;;2.03;1.60;;;17.90;99.90;;;;;;6127626;23;20410;-83
2021/07/05 06:01:02;;;;;;;3.00;2.20;;;17.80;99.90;;;;;;6128168;23;20794;-83
2021/07/05 06:03:29;;;;;;;1.93;1.70;;;17.90;99.90;;;;;;6129137;23;20780;-84
2021/07/05 06:05:56;;;;;;;4.00;2.37;;;17.90;99.90;;;;;;6131108;23;20417;-86
2021/07/05 06:08:26;;;;;;;1.80;1.70;;;17.90;99.90;;;;;;6130817;23;21028;-86
2021/07/05 06:10:53;;;;;;;1.80;1.70;;;17.90;99.90;;;;;;6130547;23;20411;-86
2021/07/05 06:13:20;;;;;;;1.97;1.80;;;17.80;99.90;;;;;;6130454;23;20433;-85
2021/07/05 06:15:48;;;;;;;2.80;2.10;;;17.80;99.90;;;;;;6130612;23;20401;-86
2021/07/05 06:18:14;;;;;;;3.03;1.80;;;17.80;99.90;;;;;;6131379;23;20406;-84
2021/07/05 06:20:42;;;;;;;2.40;1.73;;;17.80;99.90;;;;;;6129258;23;20422;-85
2021/07/05 06:23:18;;;;;;;1.60;1.50;;;17.70;99.90;;;;;;6129500;23;20426;-86
2021/07/05 06:25:45;;;;;;;3.23;1.97;;;17.70;99.90;;;;;;6128538;23;20402;-85
2021/07/05 06:28:12;;;;;;;1.70;1.60;;;17.70;99.90;;;;;;6129261;23;20417;-85
2021/07/05 06:30:39;;;;;;;1.50;1.40;;;17.80;99.90;;;;;;6129065;23;20440;-85
2021/07/05 06:33:07;;;;;;;1.33;1.33;;;17.80;99.90;;;;;;6128169;23;20417;-85
2021/07/05 06:35:34;;;;;;;1.60;1.50;;;17.80;99.90;;;;;;6128581;23;20410;-84
2021/07/05 06:38:01;;;;;;;3.50;1.90;;;17.90;99.90;;;;;;6128990;23;20499;-84
2021/07/05 06:40:28;;;;;;;1.93;1.63;;;17.80;99.90;;;;;;6128151;23;20485;-84
2021/07/05 06:42:55;;;;;;;4.07;1.87;;;17.90;99.90;;;;;;6128343;23;20492;-86
2021/07/05 06:45:21;;;;;;;2.27;1.70;;;17.90;99.90;;;;;;6128558;23;20417;-84
2021/07/05 06:47:50;;;;;;;2.53;2.37;;;17.90;99.90;;;;;;6128913;23;20413;-85
2021/07/05 06:50:18;;;;;;;1.53;1.43;;;18.00;99.90;;;;;;6129823;23;20468;-85
2021/07/05 06:52:45;;;;;;;2.00;1.90;;;17.90;99.90;;;;;;6128571;23;20416;-84
2021/07/05 06:55:13;;;;;;;3.33;2.37;;;17.90;99.90;;;;;;6128687;23;20403;-85
2021/07/05 06:57:40;;;;;;;1.80;1.63;;;17.90;99.90;;;;;;6128943;23;20436;-85
2021/07/05 07:00:10;;;;;;;2.80;1.63;;;18.00;99.90;;;;;;6129013;23;20932;-85
2021/07/05 07:02:38;;;;;;;2.30;2.10;;;17.90;99.90;;;;;;6129979;23;20409;-85
2021/07/05 07:05:07;;;;;;;1.90;1.80;;;18.10;99.90;;;;;;6129163;23;20409;-84
2021/07/05 07:07:35;;;;;;;3.13;1.93;;;18.10;99.90;;;;;;6132017;23;20441;-86
2021/07/05 07:10:02;;;;;;;1.90;1.80;;;18.10;99.90;;;;;;6132781;23;20447;-83
2021/07/05 07:12:29;;;;;;;3.60;1.97;;;18.00;99.90;;;;;;6133532;23;20431;-85
2021/07/05 07:14:55;;;;;;;2.00;1.80;;;18.10;99.90;;;;;;6131375;23;20413;-86
2021/07/05 07:17:26;;;;;;;1.93;1.60;;;18.10;99.90;;;;;;6132196;23;20417;-85
2021/07/05 07:23:16;;;;;;;2.50;1.93;;;18.00;99.90;;;;;;6130644;23;20424;-84
2021/07/05 07:25:42;;;;;;;1.50;1.40;;;18.10;99.90;;;;;;6131465;23;20417;-83
2021/07/05 07:28:09;;;;;;;2.10;1.90;;;18.10;99.90;;;;;;6131868;23;20416;-84
2021/07/05 07:30:36;;;;;;;1.77;1.67;;;18.20;99.90;;;;;;6131234;23;20430;-84
2021/07/05 07:36:20;;;;;;;2.30;2.10;;;18.20;99.90;;;;;;6131003;23;20418;-86
2021/07/05 07:39:07;;;;;;;2.53;2.33;;;18.40;99.90;;;;;;6144648;23;20422;-86
2021/07/05 07:41:34;;;;;;;1.97;1.77;;;18.60;99.90;;;;;;6147941;23;20465;-84
2021/07/05 07:44:02;;;;;;;2.77;1.67;;;18.50;99.90;;;;;;6138078;23;20481;-86
2021/07/05 07:46:29;;;;;;;2.83;2.20;;;18.60;99.90;;;;;;6140258;23;20415;-85
2021/07/05 07:48:56;;;;;;;2.23;1.90;;;18.70;99.90;;;;;;6137948;23;20429;-85
2021/07/05 07:51:24;;;;;;;1.73;1.63;;;18.60;99.90;;;;;;6135550;23;20735;-86
2021/07/05 07:53:53;;;;;;;2.03;1.50;;;18.70;99.90;;;;;;6135493;23;20421;-85
2021/07/05 07:56:29;;;;;;;2.70;2.27;;;18.80;99.90;;;;;;6148564;23;20403;-85
2021/07/05 07:58:56;;;;;;;2.37;2.17;;;18.90;99.90;;;;;;6149703;23;20430;-85
2021/07/05 08:01:34;;;;;;;1.90;1.80;;;19.00;99.90;;;;;;6133524;23;20500;-86
2021/07/05 08:04:01;;;;;;;1.57;1.47;;;18.90;99.90;;;;;;6132247;23;20949;-86
2021/07/05 08:06:28;;;;;;;2.30;1.90;;;18.90;99.90;;;;;;6132942;23;20473;-85
2021/07/05 08:08:56;;;;;;;2.53;1.90;;;19.00;99.90;;;;;;6129633;23;20457;-85
2021/07/05 08:11:23;;;;;;;2.37;2.00;;;19.00;99.90;;;;;;6128778;23;20509;-85
2021/07/05 08:19:59;;;;;;;2.50;1.70;;;19.10;99.90;;;;;;6049970;23;20473;-83
2021/07/05 08:29:19;;;;;;;1.70;1.60;;;19.10;99.90;;;;;;6046029;23;20389;-85
2021/07/05 08:31:46;;;;;;;2.33;2.13;;;19.10;99.90;;;;;;6102617;23;20409;-85
2021/07/05 09:00:51;;;;;;;4.17;2.00;;;19.20;99.90;;;;;;5943386;23;20435;-84
2021/07/05 09:03:22;;;;;;;1.90;1.80;;;19.30;99.90;;;;;;6099305;23;20431;-86
2021/07/05 09:06:28;;;;;;;3.50;1.73;;;19.40;99.90;;;;;;6100028;23;20435;-84
2021/07/05 09:09:14;;;;;;;2.00;1.57;;;19.40;99.90;;;;;;6098967;23;20435;-84
2021/07/05 09:11:47;;;;;;;1.70;1.60;;;19.50;99.90;;;;;;6098446;23;20418;-85
2021/07/05 09:14:16;;;;;;;1.77;1.67;;;19.60;99.90;;;;;;6099836;23;20392;-85
2021/07/05 09:16:46;;;;;;;2.03;1.80;;;19.60;99.90;;;;;;6100423;23;20426;-85
2021/07/05 09:19:18;;;;;;;1.47;1.37;;;19.70;99.90;;;;;;6100247;23;20436;-81
2021/07/05 09:21:51;;;;;;;1.10;1.10;;;19.70;99.90;;;;;;6098317;23;20430;-82
2021/07/05 09:24:28;;;;;;;1.30;1.23;;;19.70;99.90;;;;;;6098993;23;20467;-82
2021/07/05 09:27:08;;;;;;;1.20;1.10;;;19.80;99.90;;;;;;6098322;23;21021;-82
2021/07/05 09:29:35;;;;;;;0.83;0.70;;;19.80;99.90;;;;;;6098339;23;20427;-84
2021/07/05 09:32:05;;;;;;;0.73;0.70;;;19.70;99.90;;;;;;6098341;23;20421;-82
2021/07/05 09:34:35;;;;;;;0.90;0.90;;;19.70;99.90;;;;;;6099940;23;20407;-81
2021/07/05 09:37:22;;;;;;;1.10;1.00;;;19.70;99.90;;;;;;6099355;23;20452;-81
2021/07/05 09:40:10;;;;;;;4.53;1.50;;;19.60;99.90;;;;;;6100240;23;20439;-81
2021/07/05 09:42:46;;;;;;;1.17;1.07;;;19.50;99.90;;;;;;6100851;23;20419;-86
2021/07/05 09:45:17;;;;;;;1.20;0.90;;;19.30;99.90;;;;;;6102934;23;20788;-84
2021/07/05 09:48:42;;;;;;;;;;;;;;;;;;;;;
2021/07/05 09:51:46;;;;;;;;;;;;;;;;;;;;;
2021/07/05 09:54:33;;;;;;;1.87;1.10;;;19.30;99.90;;;;;;6094446;23;20499;-85
2021/07/05 10:01:13;;;;;;;1.43;1.33;;;19.30;99.90;;;;;;6067741;23;20475;-84
2021/07/05 10:17:45;;;;;;;1.00;1.00;;;18.90;99.90;;;;;;6098774;23;20423;-85
2021/07/05 10:20:37;;;;;;;1.30;0.90;;;18.80;99.90;;;;;;6101062;23;20451;-85
2021/07/05 10:23:08;;;;;;;2.90;1.17;;;18.80;99.90;;;;;;6100631;23;20770;-85
2021/07/05 10:25:41;;;;;;;0.83;0.83;;;18.90;99.90;;;;;;6101108;23;20455;-85
2021/07/05 10:28:12;;;;;;;1.00;1.00;;;18.90;99.90;;;;;;6100970;23;20777;-85
2021/07/05 10:30:43;;;;;;;1.03;1.03;;;19.10;99.90;;;;;;6101204;23;20771;-84
2021/07/05 10:33:22;;;;;;;0.80;0.80;;;19.20;99.90;;;;;;6101147;23;20400;-84
2021/07/05 10:36:10;;;;;;;2.23;0.90;;;19.20;99.90;;;;;;6101930;23;20483;-84
2021/07/05 10:38:45;;;;;;;2.30;1.17;;;19.30;99.90;;;;;;6102077;23;20434;-85
2021/07/05 10:41:28;;;;;;;1.20;1.07;;;19.40;99.90;;;;;;6101746;23;20424;-85
2021/07/05 10:44:05;;;;;;;1.00;1.00;;;19.40;99.90;;;;;;6103560;23;20486;-85
2021/07/05 10:46:50;;;;;;;1.03;1.00;;;19.50;99.90;;;;;;6104324;23;20445;-85
2021/07/05 10:52:50;;;;;;;1.47;1.10;;;19.70;99.90;;;;;;6102494;23;20788;-85
2021/07/05 10:55:45;;;;;;;1.03;1.03;;;19.80;99.90;;;;;;6103211;23;20416;-85
2021/07/05 10:58:35;;;;;;;1.17;1.17;;;19.90;99.90;;;;;;6103242;23;20477;-84
2021/07/05 11:01:16;;;;;;;;;;;;;;;;;;;;;
2021/07/05 11:03:51;;;;;;;1.00;1.00;;;20.00;99.90;;;;;;6102602;23;20381;-84
2021/07/05 11:06:50;;;;;;;1.00;0.90;;;20.10;99.90;;;;;;6103493;23;20445;-84
2021/07/05 11:09:36;;;;;;;1.00;0.90;;;20.00;99.90;;;;;;6098157;23;20522;-85
2021/07/05 11:12:32;;;;;;;0.90;0.90;;;20.20;99.90;;;;;;6104345;23;20425;-85
2021/07/05 11:15:19;;;;;;;1.17;1.07;;;20.30;99.90;;;;;;6104378;23;20732;-86
2021/07/05 11:18:15;;;;;;;;;;;;;;;;;;;;;
2021/07/05 11:20:46;;;;;;;1.80;0.90;;;20.70;99.90;;;;;;6103815;23;20429;-85
2021/07/05 11:23:23;;;;;;;1.90;1.00;;;20.90;99.90;;;;;;6103402;23;20448;-84
2021/07/05 11:26:26;;;;;;;1.23;1.10;;;21.10;99.90;;;;;;6104169;23;20447;-86
2021/07/05 11:29:32;;;;;;;0.93;0.93;;;21.30;99.90;;;;;;6104450;23;20451;-84
2021/07/05 11:32:12;;;;;;;1.30;1.20;;;21.60;99.90;;;;;;6104087;23;20417;-84
2021/07/05 11:34:58;;;;;;;1.27;1.17;;;21.80;99.90;;;;;;6104503;23;20446;-86
2021/07/05 11:37:37;;;;;;;1.33;1.23;;;21.90;99.90;;;;;;6103820;23;20414;-86
2021/07/05 11:40:41;;;;;;;1.43;1.20;;;21.90;99.90;;;;;;6103410;23;20500;-85
2021/07/05 11:43:11;;;;;;;1.20;1.10;;;22.00;99.90;;;;;;6103771;23;20801;-84
2021/07/05 11:45:48;;;;;;;2.23;1.20;;;21.90;99.90;;;;;;6104265;23;20478;-84
2021/07/05 11:48:56;;;;;;;1.27;1.00;;;21.90;99.90;;;;;;6103396;23;20433;-87
2021/07/05 11:51:43;;;;;;;1.67;1.53;;;21.80;99.90;;;;;;6103980;23;20961;-83
2021/07/05 11:54:18;;;;;;;1.50;1.40;;;21.80;99.90;;;;;;6103852;23;20417;-85
2021/07/05 11:56:49;;;;;;;1.90;0.93;;;21.70;99.90;;;;;;6104053;23;20418;-85
2021/07/05 11:59:25;;;;;;;2.10;1.57;;;21.70;99.90;;;;;;6105192;23;21039;-84
2021/07/05 12:02:12;;;;;;;1.57;1.47;;;21.70;99.90;;;;;;6104401;23;20413;-85
2021/07/05 12:04:43;;;;;;;1.10;1.10;;;21.70;99.90;;;;;;6104375;23;20474;-85
2021/07/05 12:07:27;;;;;;;3.27;1.30;;;21.70;99.90;;;;;;6103181;23;20773;-84
2021/07/05 12:09:57;;;;;;;1.57;1.47;;;21.60;99.90;;;;;;6111625;23;20468;-83
2021/07/05 12:12:31;;;;;;;2.67;1.33;;;21.60;99.90;;;;;;6122418;23;20435;-82
2021/07/05 12:15:08;;;;;;;1.70;1.60;;;21.60;99.90;;;;;;6122470;23;20402;-82
2021/07/05 12:17:36;;;;;;;2.97;1.87;;;21.50;99.90;;;;;;6103566;23;20426;-85
2021/07/05 12:20:14;;;;;;;1.30;1.20;;;21.50;99.90;;;;;;6103039;23;20443;-85
2021/07/05 12:22:44;;;;;;;1.30;1.20;;;21.50;99.90;;;;;;6104152;23;20427;-85
2021/07/05 12:25:15;;;;;;;2.07;1.50;;;21.50;99.90;;;;;;6104219;23;20451;-85
2021/07/05 12:28:10;;;;;;;1.70;1.60;;;21.50;99.90;;;;;;6104509;23;20422;-85
2021/07/05 12:30:40;;;;;;;1.30;1.30;;;21.60;99.90;;;;;;6099885;23;20440;-85
2021/07/05 12:33:16;;;;;;;1.40;1.30;;;21.70;99.90;;;;;;6104091;23;20427;-85
2021/07/05 12:35:47;;;;;;;2.33;1.33;;;21.90;99.90;;;;;;6103447;23;20409;-85
2021/07/05 12:38:21;;;;;;;2.13;1.43;;;22.20;99.90;;;;;;6103644;23;20618;-85
2021/07/05 12:40:58;;;;;;;1.60;1.50;;;22.50;99.90;;;;;;6103593;23;20425;-84
2021/07/05 12:43:30;;;;;;;1.20;1.10;;;22.80;99.90;;;;;;6103000;23;20479;-84
2021/07/05 12:46:00;;;;;;;1.20;1.20;;;23.10;99.90;;;;;;6103304;23;20444;-84
2021/07/05 12:48:29;;;;;;;1.50;1.40;;;23.30;99.90;;;;;;6103050;23;20483;-82
2021/07/05 12:51:03;;;;;;;1.93;1.57;;;23.30;99.90;;;;;;6103801;23;20424;-84
2021/07/05 12:53:41;;;;;;;1.07;1.07;;;23.40;99.90;;;;;;6102657;23;20424;-83
2021/07/05 12:56:10;;;;;;;1.20;1.10;;;23.60;99.90;;;;;;6103736;23;20897;-86
2021/07/05 12:58:42;;;;;;;1.80;1.70;;;23.80;99.90;;;;;;6102956;23;20427;-84
2021/07/05 13:01:12;;;;;;;1.63;1.53;;;24.00;99.90;;;;;;6103005;23;20416;-84
2021/07/05 13:03:41;;;;;;;1.33;1.10;;;24.10;99.90;;;;;;6102645;23;20415;-85
2021/07/05 13:06:10;;;;;;;0.83;0.83;;;24.30;99.90;;;;;;6102291;23;20445;-84
2021/07/05 13:08:40;;;;;;;1.20;1.10;;;24.30;99.90;;;;;;6103678;23;20416;-83
2021/07/05 13:11:11;;;;;;;1.07;1.07;;;24.20;99.70;;;;;;6103987;23;20440;-83
2021/07/05 13:13:44;;;;;;;0.80;0.80;;;24.20;99.00;;;;;;6103644;23;20394;-84
2021/07/05 13:16:21;;;;;;;1.23;0.87;;;24.00;98.70;;;;;;6103854;23;20387;-84
2021/07/05 13:18:50;;;;;;;1.27;0.97;;;23.90;98.90;;;;;;6103635;23;20460;-83
2021/07/05 13:21:28;;;;;;;0.67;0.67;;;23.80;98.40;;;;;;6104180;23;20801;-84
2021/07/05 13:23:57;;;;;;;1.27;0.90;;;23.80;99.40;;;;;;6103886;23;20421;-82
2021/07/05 13:26:35;;;;;;;1.53;0.70;;;23.70;99.00;;;;;;6104369;23;20444;-83
2021/07/05 13:29:14;;;;;;;1.10;1.00;;;23.60;99.20;;;;;;6103116;23;20530;-83
2021/07/05 13:31:42;;;;;;;0.93;0.93;;;23.50;99.30;;;;;;6102673;23;20484;-83
2021/07/05 13:34:31;;;;;;;1.23;1.10;;;23.50;99.20;;;;;;6102875;23;20424;-83
2021/07/05 13:36:58;;;;;;;0.90;0.90;;;23.60;99.20;;;;;;6103293;23;20491;-85
2021/07/05 13:39:28;;;;;;;1.10;1.00;;;23.80;98.80;;;;;;6103390;23;20511;-83
2021/07/05 13:42:02;;;;;;;0.83;0.80;;;23.80;98.30;;;;;;6102741;23;20487;-83
2021/07/05 13:44:31;;;;;;;0.80;0.80;;;23.70;98.70;;;;;;6103032;23;20797;-83
2021/07/05 13:47:20;;;;;;;2.30;1.80;;;23.60;99.30;;;;;;6103344;23;20482;-85
2021/07/05 13:50:16;;;;;;;0.97;0.90;;;23.10;99.90;;;;;;6103185;23;21018;-86
2021/07/05 13:53:01;;;;;;;1.73;1.13;;;22.60;99.90;;;;;;6102686;23;20427;-86
2021/07/05 13:55:36;;;;;;;1.33;1.10;;;22.30;99.90;;;;;;6103106;23;20428;-85
2021/07/05 13:58:13;;;;;;;1.70;1.30;;;22.20;99.90;;;;;;6102984;23;20418;-86
2021/07/05 14:00:51;;;;;;;1.43;1.13;;;21.90;99.90;;;;;;6102962;23;20442;-85
2021/07/05 14:03:23;;;;;;;2.40;1.00;;;22.00;99.90;;;;;;6102357;23;20426;-85
2021/07/05 14:05:54;;;;;;;0.83;0.60;;;21.90;99.90;;;;;;6102730;23;20447;-85
2021/07/05 14:08:24;;;;;;;0.70;0.70;;;21.80;99.90;;;;;;6101500;23;20426;-85
2021/07/05 14:10:56;;;;;;;0.57;0.57;;;21.80;99.90;;;;;;6103629;23;20429;-86
2021/07/05 14:13:30;;;;;;;0.70;0.70;;;21.80;99.90;;;;;;6103335;23;20427;-86
2021/07/05 14:16:00;;;;;;;1.37;1.10;;;21.90;99.90;;;;;;6102524;23;20418;-87
2021/07/05 14:18:29;;;;;;;0.90;0.90;;;21.70;99.90;;;;;;6103675;23;20423;-84
2021/07/05 14:20:58;;;;;;;1.03;1.00;;;21.60;99.90;;;;;;6105405;23;20484;-85